Pagrindinis puslapis
METAR-TAF:

METAR-TAF

Oro uostai :

Quatro de Fevereiro oro uostas

Luanda, Angola

platuma: 08-51S, ilguma: 013-14E, Aukštis: 74 m

Dabartinis oras

Ataskaita buvo paskelbta 22 minutes, ne 18:00 UTC
Vėjas 3 kt nuo kintamojo kryptimis
Temperatūra 27°C
Drėgmė 84%
Slėgis 1010 hPa
Matomumas 10 km arba daugiau
Mažai debesys ne aukštis 2000 ft
Su prošvaistėmis ne aukštis 7000 ft

METAR: FNLU 171800Z VRB03KT 9999 FEW020 BKN070 27/24 Q1010 NOSIG

Laikas: 19:22 (18:22 UTC)

Prognozė

Ataskaita buvo paskelbta 1 valandą ir 22 minutes, ne 17:00 UTC
Prognozė galioja nuo 17 metu 18 UTC su 18 metu 24 UTC
Vėjas 6 kt iš Pietvakarių
Matomumas 10 km arba daugiau
Išsisklaidę debesys ne aukštis 2000 ft
Su prošvaistėmis ne aukštis 2500 ft
Tapsmas
nuo 17 metu 22 UTC su 17 metu 24 UTC
Išsisklaidę debesys ne aukštis 2200 ft
Laikinai
nuo 18 metu 01 UTC su 18 metu 06 UTC
Vėjas 4 kt iš Pietryčių

TAF: FNLU 171700Z 1718/1824 22006KT 9999 SCT020 BKN025 BECMG 1722/1724 SCT022 TEMPO 1801/1806 13004KT

Orai ataskaitas ir orų prognozės (METAR, TAF).

turimą stotys yra geltonos ir raudonos taškus žemėlapyje.

Perkelti pele per norėdami pamatyti stoties vardą.

Tada spustelėkite, norėdami matyti oro stebėjimo ir prognozės.

Norėdami pakeisti žemėlapį: spustelėkite ant žalios mygtukų su juodo kryžiaus žemyn,; žalią mygtuką su brūkšneliu, jei norite nutolinti; arba žalių rodyklių gretimoms žemėlapius.


METAR-TAF: